Time;durP1;ratioP1;P1;durP2;ratioP2;P2;SDS_P1;SDS_P2;PMS_P1;PMS_P2;Temp;Humidity;BMP_temperature;BMP_pressure;BME280_temperature;BME280_humidity;BME280_pressure;Samples;Min_cycle;Max_cycle;Signal;HPM_P1;HPM_P2
2023/05/18 00:01:16;;;;;;;2.17;1.48;;;;;;;13.02;59.89;99764.75;4406563;32;20082;-86
2023/05/18 00:03:41;;;;;;;3.20;1.73;;;;;;;12.86;59.88;99771.50;4406663;32;20169;-86
2023/05/18 00:06:07;;;;;;;3.95;1.45;;;;;;;12.75;59.89;99771.94;4419335;32;20181;-87
2023/05/18 00:08:33;;;;;;;2.72;1.33;;;;;;;12.83;59.88;99771.63;4406580;32;20402;-87
2023/05/18 00:10:59;;;;;;;3.58;1.98;;;;;;;12.96;59.90;99780.66;4405989;32;20148;-87
2023/05/18 00:13:25;;;;;;;3.17;1.77;;;;;;;13.07;59.90;99778.47;4406807;32;20406;-87
2023/05/18 00:15:50;;;;;;;2.90;1.67;;;;;;;13.09;59.89;99778.41;4407566;32;20164;-86
2023/05/18 00:18:16;;;;;;;2.83;1.90;;;;;;;13.02;59.89;99779.56;4407187;32;20420;-85
2023/05/18 00:20:42;;;;;;;1.60;1.40;;;;;;;12.95;59.89;99778.09;4407165;32;20906;-87
2023/05/18 00:23:09;;;;;;;3.40;2.00;;;;;;;13.00;59.90;99771.78;4407713;32;20085;-86
2023/05/18 00:25:35;;;;;;;2.92;1.65;;;;;;;12.93;59.89;99775.56;4407010;32;20459;-87
2023/05/18 00:28:00;;;;;;;3.33;1.70;;;;;;;13.05;59.90;99782.06;4407721;32;20241;-86
2023/05/18 00:30:25;;;;;;;2.42;1.80;;;;;;;13.08;59.90;99782.78;4407613;32;20123;-87
2023/05/18 00:32:51;;;;;;;3.17;1.80;;;;;;;13.11;59.89;99781.78;4419948;32;20450;-86
2023/05/18 00:35:16;;;;;;;3.45;1.80;;;;;;;13.11;59.90;99780.03;4407546;32;20145;-87
2023/05/18 00:37:41;;;;;;;3.72;2.20;;;;;;;13.09;59.90;99773.16;4419781;32;26291;-87
2023/05/18 00:40:08;;;;;;;3.55;1.98;;;;;;;13.08;59.90;99774.09;4406854;32;38631;-87
2023/05/18 00:42:33;;;;;;;2.35;1.73;;;;;;;13.11;59.90;99784.41;4420187;32;20094;-87
2023/05/18 00:44:59;;;;;;;3.67;2.12;;;;;;;13.09;59.90;99778.41;4407329;32;20155;-86
2023/05/18 00:47:24;;;;;;;3.40;2.12;;;;;;;13.16;59.90;99780.69;4420257;32;20094;-87
2023/05/18 00:49:50;;;;;;;3.15;1.87;;;;;;;13.10;59.90;99780.09;4406947;32;29975;-86
2023/05/18 00:52:15;;;;;;;4.03;2.10;;;;;;;13.13;59.91;99783.44;4407401;32;20156;-87
2023/05/18 00:54:41;;;;;;;4.10;2.08;;;;;;;13.09;59.89;99781.00;4407264;32;20388;-86
2023/05/18 00:57:07;;;;;;;3.28;2.05;;;;;;;12.93;59.89;99790.38;4420153;32;20186;-86
2023/05/18 00:59:33;;;;;;;3.85;2.40;;;;;;;13.01;59.90;99788.28;4407407;32;20097;-87
2023/05/18 01:02:00;;;;;;;3.70;2.17;;;;;;;13.05;59.90;99785.50;4420199;32;20087;-87
2023/05/18 01:04:26;;;;;;;3.22;2.40;;;;;;;13.01;59.89;99788.28;4407513;32;20132;-87
2023/05/18 01:06:55;;;;;;;8.20;2.37;;;;;;;13.11;59.89;99782.63;4420289;32;20106;-86
2023/05/18 01:09:20;;;;;;;7.15;1.98;;;;;;;12.99;59.89;99792.75;4407495;32;20463;-87
2023/05/18 01:11:51;;;;;;;5.00;2.03;;;;;;;12.96;59.90;99791.09;4394754;32;20129;-86
2023/05/18 01:14:23;;;;;;;5.43;2.25;;;;;;;13.00;59.90;99791.81;4420172;32;20129;-87
2023/05/18 01:17:06;;;;;;;3.97;2.50;;;;;;;13.00;59.90;99797.03;4420172;32;20172;-88
2023/05/18 01:19:55;;;;;;;6.00;2.28;;;;;;;12.91;59.89;99801.75;4420027;32;20082;-87
2023/05/18 01:22:28;;;;;;;3.28;2.20;;;;;;;12.89;59.89;99806.19;4408644;32;20566;-87
2023/05/18 01:24:58;;;;;;;5.45;2.33;;;;;;;12.92;59.89;99805.22;4419759;32;20760;-87
2023/05/18 01:27:24;;;;;;;;;;;;;;;12.95;59.89;99804.22;4420350;32;20213;-87
2023/05/18 01:29:55;;;;;;;5.47;2.60;;;;;;;13.03;59.89;99804.78;4407334;32;20014;-87
2023/05/18 01:32:20;;;;;;;3.17;2.03;;;;;;;12.93;59.89;99808.66;4419593;32;20112;-89
2023/05/18 01:34:46;;;;;;;5.22;2.45;;;;;;;13.00;59.90;99800.50;4406942;32;20106;-89
2023/05/18 01:37:11;;;;;;;5.03;2.50;;;;;;;13.04;59.90;99809.94;4407366;32;20138;-89
2023/05/18 01:39:37;;;;;;;4.68;2.60;;;;;;;13.10;59.90;99812.31;4406892;32;20389;-88
2023/05/18 01:42:10;;;;;;;3.83;2.15;;;;;;;13.03;59.89;99810.87;4407066;32;20173;-87
2023/05/18 01:44:42;;;;;;;4.93;2.50;;;;;;;12.96;59.90;99806.78;4418282;32;20101;-88
2023/05/18 01:47:16;;;;;;;4.22;2.50;;;;;;;13.25;59.91;99807.38;4419673;32;20127;-89
2023/05/18 01:49:52;;;;;;;4.20;2.50;;;;;;;13.08;59.89;99814.12;4418535;32;28146;-87
2023/05/18 01:52:37;;;;;;;5.60;2.03;;;;;;;13.08;59.89;99819.34;4419517;32;20101;-88
2023/05/18 01:55:03;;;;;;;4.35;2.85;;;;;;;13.16;59.90;99817.28;4419883;32;20136;-88
2023/05/18 01:57:30;;;;;;;3.75;2.58;;;;;;;12.87;59.89;99822.84;4419312;32;20160;-88
2023/05/18 01:59:58;;;;;;;3.92;2.75;;;;;;;13.05;59.90;99822.09;4419689;32;20224;-88
2023/05/18 02:02:24;;;;;;;4.00;2.67;;;;;;;13.06;59.90;99825.56;4419379;32;20091;-88
2023/05/18 02:04:50;;;;;;;4.60;2.72;;;;;;;12.97;59.88;99828.53;4406718;32;20205;-88
2023/05/18 02:07:15;;;;;;;3.28;2.33;;;;;;;12.82;59.89;99832.63;4407009;32;20754;-88
2023/05/18 02:09:41;;;;;;;7.45;2.40;;;;;;;13.07;59.90;99829.88;4406958;32;20082;-88
2023/05/18 02:12:07;;;;;;;5.45;2.97;;;;;;;13.16;59.90;99825.09;4406938;32;20100;-87
2023/05/18 02:14:32;;;;;;;5.30;3.10;;;;;;;13.15;59.90;99836.47;4407690;32;20165;-88
2023/05/18 02:16:58;;;;;;;4.53;2.62;;;;;;;13.06;59.90;99836.00;4406794;32;20142;-87
2023/05/18 02:19:24;;;;;;;5.37;2.58;;;;;;;13.02;59.89;99840.53;4419564;32;20379;-88
2023/05/18 02:21:49;;;;;;;3.75;2.60;;;;;;;13.13;59.91;99840.91;4419310;32;20125;-87
2023/05/18 02:24:16;;;;;;;4.62;3.03;;;;;;;12.95;59.89;99839.03;4406185;32;20102;-87
2023/05/18 02:26:41;;;;;;;4.35;2.85;;;;;;;13.08;59.90;99839.41;4406424;32;20102;-86
2023/05/18 02:29:10;;;;;;;3.78;2.78;;;;;;;13.13;59.90;99846.16;4419217;32;20103;-87
2023/05/18 02:31:36;;;;;;;4.82;2.53;;;;;;;13.07;59.90;99848.16;4406631;32;20122;-86
2023/05/18 02:34:02;;;;;;;4.25;2.83;;;;;;;13.13;59.90;99835.69;4406313;32;20106;-86
2023/05/18 02:36:36;;;;;;;6.05;3.15;;;;;;;12.90;59.89;99839.25;4406578;32;20126;-86
2023/05/18 02:39:05;;;;;;;6.97;2.90;;;;;;;12.88;59.88;99840.22;4406622;32;20117;-87
2023/05/18 02:41:31;;;;;;;8.88;3.03;;;;;;;12.98;59.90;99843.28;4419058;32;20447;-86
2023/05/18 02:43:56;;;;;;;6.60;3.28;;;;;;;12.94;59.89;99844.34;4419093;32;20149;-87
2023/05/18 02:46:22;;;;;;;6.45;3.33;;;;;;;12.92;59.89;99849.63;4420948;32;20133;-87
2023/05/18 02:48:47;;;;;;;5.80;3.25;;;;;;;13.04;59.89;99845.69;4420433;32;24660;-86
2023/05/18 02:51:13;;;;;;;6.30;3.12;;;;;;;12.87;59.88;99844.59;4408045;32;20133;-86
2023/05/18 02:53:38;;;;;;;5.70;2.87;;;;;;;12.99;59.89;99848.47;4407965;32;20116;-86
2023/05/18 02:56:04;;;;;;;6.03;3.17;;;;;;;13.14;59.90;99844.38;4421035;32;20163;-87
2023/05/18 02:58:29;;;;;;;5.60;3.35;;;;;;;13.05;59.90;99848.22;4409417;32;20094;-86
2023/05/18 03:00:55;;;;;;;5.35;3.17;;;;;;;13.08;59.90;99849.88;4421005;32;20125;-87
2023/05/18 03:03:22;;;;;;;6.45;3.15;;;;;;;13.06;59.90;99852.53;4408262;32;20447;-87
2023/05/18 03:05:51;;;;;;;8.35;3.50;;;;;;;13.09;59.89;99841.97;4408343;32;20105;-86
2023/05/18 03:08:18;;;;;;;8.73;3.33;;;;;;;13.07;59.90;99838.56;4408282;32;20082;-86
2023/05/18 03:10:44;;;;;;;4.60;3.28;;;;;;;13.02;59.89;99852.75;4408247;32;20112;-87
2023/05/18 03:13:09;;;;;;;6.30;3.75;;;;;;;13.03;59.89;99852.69;4408215;32;20103;-87
2023/05/18 03:15:36;;;;;;;4.28;3.10;;;;;;;12.91;59.89;99850.53;4408104;32;20093;-86
2023/05/18 03:18:02;;;;;;;4.95;2.92;;;;;;;13.10;59.89;99853.25;4408064;32;20296;-86
2023/05/18 03:20:28;;;;;;;5.78;3.47;;;;;;;13.02;59.89;99850.97;4408105;32;20236;-86
2023/05/18 03:22:54;;;;;;;5.68;2.80;;;;;;;13.09;59.89;99852.41;4420856;32;20141;-87
2023/05/18 03:25:21;;;;;;;6.20;3.15;;;;;;;13.04;59.90;99854.38;4421056;32;20110;-86
2023/05/18 03:27:47;;;;;;;4.80;2.87;;;;;;;13.04;59.89;99853.53;4421160;32;20086;-86
2023/05/18 03:30:12;;;;;;;4.32;3.00;;;;;;;13.15;59.90;99857.38;4408272;32;20164;-86
2023/05/18 03:32:38;;;;;;;3.87;2.47;;;;;;;13.06;59.90;99857.78;4408196;32;20107;-87
2023/05/18 03:35:04;;;;;;;6.55;2.97;;;;;;;13.18;59.90;99854.69;4408115;32;20206;-86
2023/05/18 03:37:29;;;;;;;3.60;2.72;;;;;;;13.18;59.90;99866.91;4420703;32;20697;-86
2023/05/18 03:39:58;;;;;;;5.68;2.97;;;;;;;13.23;59.90;99866.69;4407975;32;20086;-85
2023/05/18 03:42:24;;;;;;;4.57;2.97;;;;;;;13.03;59.89;99865.75;4420753;32;20221;-86
2023/05/18 03:44:50;;;;;;;3.92;2.65;;;;;;;13.15;59.90;99862.63;4408109;32;20114;-86
2023/05/18 03:47:15;;;;;;;4.47;2.70;;;;;;;13.14;59.90;99860.91;4407944;32;20352;-86
2023/05/18 03:49:41;;;;;;;4.50;2.90;;;;;;;13.08;59.89;99869.00;4407837;32;20149;-85
2023/05/18 03:52:06;;;;;;;8.00;2.78;;;;;;;13.18;59.90;99874.75;4420086;32;32630;-86
2023/05/18 03:54:32;;;;;;;4.22;3.22;;;;;;;13.13;59.91;99874.91;4420836;32;20383;-87
2023/05/18 03:56:57;;;;;;;6.32;3.35;;;;;;;12.92;59.89;99878.37;4420985;32;20142;-88
2023/05/18 03:59:22;;;;;;;5.43;3.55;;;;;;;13.02;59.89;99881.47;4408631;32;20102;-88
2023/05/18 04:01:52;;;;;;;4.95;3.58;;;;;;;12.97;59.88;99891.25;4407852;32;20515;-87
2023/05/18 04:04:21;;;;;;;8.13;3.60;;;;;;;12.97;59.89;99892.09;4408794;32;20244;-87
2023/05/18 04:06:48;;;;;;;7.50;3.80;;;;;;;13.05;59.90;99892.66;4409514;32;20478;-88
2023/05/18 04:09:16;;;;;;;5.00;3.47;;;;;;;13.14;59.90;99881.81;4408663;32;20086;-87
2023/05/18 04:11:41;;;;;;;5.37;3.40;;;;;;;13.12;59.90;99894.09;4407954;32;20179;-86
2023/05/18 04:14:09;;;;;;;5.53;3.53;;;;;;;13.10;59.90;99884.63;4420483;32;20109;-85
2023/05/18 04:16:35;;;;;;;6.45;4.10;;;;;;;12.85;59.88;99900.44;4420267;32;20439;-87
2023/05/18 04:19:02;;;;;;;5.87;3.83;;;;;;;13.05;59.90;99895.28;4420066;32;20102;-87
2023/05/18 04:21:34;;;;;;;6.25;3.87;;;;;;;13.13;59.90;99892.34;4407858;32;20124;-85
2023/05/18 04:24:05;;;;;;;8.32;4.25;;;;;;;13.22;59.91;99894.59;4407572;32;20105;-87
2023/05/18 04:26:33;;;;;;;6.75;3.75;;;;;;;13.10;59.90;99898.53;4407801;32;20101;-87
2023/05/18 04:28:58;;;;;;;5.68;3.83;;;;;;;13.13;59.90;99900.19;4420378;32;20148;-87
2023/05/18 04:31:25;;;;;;;6.37;4.00;;;;;;;13.03;59.88;99904.94;4420161;32;20114;-86
2023/05/18 04:33:51;;;;;;;6.90;4.15;;;;;;;13.06;59.90;99904.81;4407866;32;20106;-87
2023/05/18 04:36:19;;;;;;;5.47;3.70;;;;;;;12.91;59.89;99908.00;4407607;32;20120;-86
2023/05/18 04:38:44;;;;;;;7.75;4.32;;;;;;;13.06;59.90;99912.66;4407796;32;20453;-86
2023/05/18 04:41:10;;;;;;;11.75;4.35;;;;;;;13.04;59.90;99911.88;4407654;32;20150;-86
2023/05/18 04:43:36;;;;;;;6.07;3.92;;;;;;;13.02;59.89;99911.06;4406623;32;37279;-86
2023/05/18 04:46:01;;;;;;;6.28;4.12;;;;;;;13.13;59.91;99911.50;4407256;32;20176;-86
2023/05/18 04:48:28;;;;;;;6.32;4.12;;;;;;;13.10;59.89;99918.59;4406198;32;34587;-86
2023/05/18 04:50:54;;;;;;;6.62;4.40;;;;;;;13.12;59.90;99909.78;4407375;32;20456;-87
2023/05/18 04:53:20;;;;;;;6.28;4.68;;;;;;;13.17;59.90;99913.09;4407651;32;20160;-87
2023/05/18 04:55:48;;;;;;;7.75;4.97;;;;;;;13.20;59.91;99902.50;4407485;32;20094;-87
2023/05/18 04:58:14;;;;;;;7.95;6.00;;;;;;;13.23;59.90;99898.06;4419912;32;20090;-86
2023/05/18 05:00:39;;;;;;;7.95;5.57;;;;;;;13.17;59.89;99912.22;4420176;32;20439;-87
2023/05/18 05:03:05;;;;;;;9.38;5.75;;;;;;;13.28;59.91;99907.44;4419741;32;20121;-86
2023/05/18 05:05:30;;;;;;;8.20;5.35;;;;;;;13.20;59.91;99915.56;4419892;32;20109;-87
2023/05/18 05:07:56;;;;;;;7.10;4.70;;;;;;;13.23;59.90;99918.97;4418353;32;31096;-86
2023/05/18 05:10:22;;;;;;;12.30;5.80;;;;;;;13.28;59.91;99917.91;4420118;32;20122;-86
2023/05/18 05:12:50;;;;;;;7.57;5.62;;;;;;;13.17;59.90;99914.81;4419994;32;20094;-86
2023/05/18 05:15:16;;;;;;;8.70;5.30;;;;;;;13.18;59.90;99921.78;4407461;32;20474;-86
2023/05/18 05:17:42;;;;;;;7.00;4.97;;;;;;;13.21;59.91;99922.50;4408693;32;20082;-88
2023/05/18 05:20:08;;;;;;;9.02;5.35;;;;;;;13.38;59.92;99923.59;4418704;32;34168;-87
2023/05/18 05:22:33;;;;;;;8.35;5.28;;;;;;;13.15;59.90;99921.88;4420015;32;20098;-86
2023/05/18 05:24:58;;;;;;;10.30;5.50;;;;;;;13.17;59.90;99926.16;4419437;32;20391;-86
2023/05/18 05:27:25;;;;;;;9.05;5.53;;;;;;;13.45;59.92;99922.44;4418919;32;34113;-86
2023/05/18 05:29:50;;;;;;;7.22;4.97;;;;;;;13.35;59.91;99928.97;4407020;32;20121;-87
2023/05/18 05:32:15;;;;;;;7.32;4.75;;;;;;;13.39;59.91;99926.16;4408013;32;20081;-87
2023/05/18 05:34:45;;;;;;;7.07;5.15;;;;;;;13.49;59.92;99927.50;4419113;32;23401;-87
2023/05/18 05:37:11;;;;;;;6.85;4.87;;;;;;;13.56;59.92;99930.69;4406910;32;20094;-88
2023/05/18 05:39:36;;;;;;;8.55;6.03;;;;;;;13.48;59.91;99924.91;4406770;32;20443;-85
2023/05/18 05:42:02;;;;;;;8.55;5.55;;;;;;;13.54;59.92;99926.44;4419502;32;20094;-86
2023/05/18 05:44:27;;;;;;;10.68;6.12;;;;;;;13.65;59.92;99930.31;4418821;32;20079;-87
2023/05/18 05:46:52;;;;;;;8.18;5.97;;;;;;;13.72;59.93;99933.50;4406986;32;20129;-86
2023/05/18 05:49:18;;;;;;;8.88;5.10;;;;;;;13.77;59.94;99937.66;4407039;32;20190;-86
2023/05/18 05:51:44;;;;;;;7.45;5.53;;;;;;;13.90;59.94;99937.97;4418153;32;20484;-87
2023/05/18 05:54:09;;;;;;;8.25;4.95;;;;;;;13.80;59.94;99939.28;4402349;32;20141;-87
2023/05/18 05:56:35;;;;;;;7.47;5.10;;;;;;;13.99;59.94;99934.97;4408018;32;20074;-87
2023/05/18 05:59:00;;;;;;;7.72;5.22;;;;;;;13.95;59.94;99932.53;4406326;32;20110;-84
2023/05/18 06:01:26;;;;;;;5.32;4.20;;;;;;;13.92;59.94;99941.38;4406964;32;20173;-86
2023/05/18 06:03:51;;;;;;;5.15;4.00;;;;;;;14.01;59.94;99940.16;4406699;32;20171;-87
2023/05/18 06:06:17;;;;;;;6.07;4.12;;;;;;;14.06;59.95;99946.03;4406062;32;20415;-87
2023/05/18 06:08:42;;;;;;;7.15;4.45;;;;;;;14.09;59.95;99945.88;4406911;32;20235;-88
2023/05/18 06:11:08;;;;;;;6.93;4.60;;;;;;;14.13;59.95;99943.06;4407479;32;20387;-88
2023/05/18 06:13:33;;;;;;;5.20;3.58;;;;;;;14.05;59.95;99949.56;4406260;32;20517;-86
2023/05/18 06:15:58;;;;;;;5.85;3.85;;;;;;;14.20;59.96;99950.69;4406074;32;20385;-86
2023/05/18 06:18:24;;;;;;;6.12;4.15;;;;;;;13.98;59.94;99961.22;4406297;32;20114;-86
2023/05/18 06:20:50;;;;;;;6.78;4.07;;;;;;;14.06;59.95;99959.12;4412119;32;20157;-85
2023/05/18 06:23:21;;;;;;;5.43;4.00;;;;;;;13.93;59.94;99955.31;4411634;32;20133;-86
2023/05/18 06:25:46;;;;;;;7.03;4.07;;;;;;;14.07;59.95;99963.44;4411126;32;20379;-86
2023/05/18 06:28:12;;;;;;;6.03;3.85;;;;;;;14.01;59.95;99961.94;4411708;32;20146;-86
2023/05/18 06:30:37;;;;;;;6.65;3.80;;;;;;;14.05;59.95;99962.66;4413052;32;20145;-86
2023/05/18 06:33:03;;;;;;;5.37;3.87;;;;;;;14.03;59.96;99965.34;4412971;32;20239;-85
2023/05/18 06:35:28;;;;;;;5.50;4.25;;;;;;;14.20;59.96;99961.16;4411930;32;20399;-86
2023/05/18 06:37:54;;;;;;;6.75;3.67;;;;;;;14.45;59.97;99964.44;4411656;32;20451;-86
2023/05/18 06:40:19;;;;;;;8.27;4.05;;;;;;;14.34;59.97;99964.84;4412672;32;20106;-86
2023/05/18 06:42:45;;;;;;;4.87;3.40;;;;;;;14.25;59.96;99972.28;4411822;32;20134;-86
2023/05/18 06:45:10;;;;;;;7.57;3.90;;;;;;;14.41;59.97;99966.28;4411395;32;20137;-86
2023/05/18 06:47:36;;;;;;;4.25;3.12;;;;;;;14.20;59.96;99969.00;4412881;32;20411;-86
2023/05/18 06:50:02;;;;;;;5.80;3.50;;;;;;;14.48;59.98;99982.62;4399096;32;20094;-85
2023/05/18 06:52:28;;;;;;;8.50;4.95;;;;;;;14.46;59.97;99978.37;4411628;32;20105;-86
2023/05/18 06:54:53;;;;;;;6.15;3.90;;;;;;;14.42;59.97;99985.44;4411541;32;20133;-85
2023/05/18 06:57:19;;;;;;;7.07;4.47;;;;;;;14.50;59.97;99979.94;4411439;32;20114;-86
2023/05/18 06:59:45;;;;;;;5.60;3.85;;;;;;;14.58;59.98;99981.28;4411450;32;20120;-85
2023/05/18 07:02:10;;;;;;;10.20;5.10;;;;;;;14.68;59.99;99986.97;4411392;32;20085;-86
2023/05/18 07:04:36;;;;;;;6.43;4.70;;;;;;;14.58;59.98;99988.28;4398759;32;20094;-85
2023/05/18 07:07:01;;;;;;;6.35;4.00;;;;;;;14.52;59.97;99993.81;4398794;32;20132;-86
2023/05/18 07:09:27;;;;;;;6.35;4.62;;;;;;;14.57;59.98;99986.59;4411405;32;20189;-86
2023/05/18 07:11:52;;;;;;;7.20;3.58;;;;;;;14.70;59.98;99998.25;4411324;32;20227;-86
2023/05/18 07:14:18;;;;;;;6.70;3.40;;;;;;;14.53;59.97;99998.97;4398919;32;20086;-85
2023/05/18 07:16:45;;;;;;;5.40;3.47;;;;;;;14.42;59.97;99993.31;4385913;32;20130;-86
2023/05/18 07:19:11;;;;;;;7.95;3.53;;;;;;;14.51;59.98;99998.19;4398937;32;20102;-86
2023/05/18 07:21:36;;;;;;;5.07;3.30;;;;;;;14.71;59.98;99997.31;4411117;32;20375;-86
2023/05/18 07:24:02;;;;;;;4.82;3.10;;;;;;;14.51;59.97;100002.59;4411073;32;20394;-86
2023/05/18 07:26:28;;;;;;;4.20;3.30;;;;;;;14.53;59.97;100006.84;4412514;32;20463;-86
2023/05/18 07:28:54;;;;;;;4.55;3.05;;;;;;;14.94;59.99;99998.91;4411192;32;20097;-86
2023/05/18 07:31:20;;;;;;;5.62;2.62;;;;;;;15.00;60.00;99998.59;4396119;32;20388;-87
2023/05/18 07:33:46;;;;;;;4.90;2.80;;;;;;;14.90;59.99;100003.41;4396124;32;20094;-86
2023/05/18 07:36:12;;;;;;;5.03;2.90;;;;;;;15.07;60.00;99996.53;4395940;32;20102;-86
2023/05/18 07:38:38;;;;;;;4.00;2.50;;;;;;;15.01;59.99;100006.41;4408361;32;20156;-86
2023/05/18 07:41:03;;;;;;;6.62;2.70;;;;;;;14.88;59.99;100007.00;4408390;32;20534;-86
2023/05/18 07:43:28;;;;;;;4.18;2.40;;;;;;;15.13;60.01;100004.13;4408391;32;20082;-86
2023/05/18 07:45:54;;;;;;;2.53;2.00;;;;;;;15.30;60.01;100014.66;4408159;32;20409;-86
2023/05/18 07:48:19;;;;;;;5.78;2.28;;;;;;;15.27;60.01;100009.56;4395771;32;20393;-86
2023/05/18 07:50:45;;;;;;;2.75;1.52;;;;;;;15.24;60.01;100012.34;4395477;32;20386;-86
2023/05/18 07:53:10;;;;;;;4.68;1.90;;;;;;;15.35;60.02;100015.28;4408235;32;20146;-86
2023/05/18 07:55:36;;;;;;;4.93;1.90;;;;;;;15.37;60.02;100013.44;4409290;32;20133;-86
2023/05/18 07:58:01;;;;;;;1.98;1.10;;;;;;;15.44;60.02;100019.28;4408127;32;20142;-86
2023/05/18 08:00:27;;;;;;;1.65;1.00;;;;;;;15.46;60.02;100014.81;4407814;32;20772;-86
2023/05/18 08:02:52;;;;;;;5.03;0.93;;;;;;;15.44;60.02;100020.13;4395560;32;20127;-86
2023/05/18 08:05:20;;;;;;;1.15;0.60;;;;;;;15.54;60.02;100015.28;4383002;32;20162;-86
2023/05/18 08:07:45;;;;;;;2.70;0.70;;;;;;;15.66;60.03;100017.34;4395766;32;20132;-86
2023/05/18 08:10:10;;;;;;;1.33;0.40;;;;;;;15.67;60.03;100019.06;4407805;32;20089;-86
2023/05/18 08:12:36;;;;;;;1.58;0.57;;;;;;;15.86;60.04;100013.75;4408190;32;20146;-86
2023/05/18 08:15:01;;;;;;;0.80;0.40;;;;;;;15.89;60.05;100008.34;4382481;32;20406;-86
2023/05/18 08:17:27;;;;;;;0.52;0.50;;;;;;;15.84;60.04;100020.84;4408046;32;20132;-85
2023/05/18 08:19:53;;;;;;;1.30;0.50;;;;;;;15.89;60.05;100016.22;4394374;32;37105;-86
2023/05/18 08:22:18;;;;;;;0.37;0.15;;;;;;;16.06;60.06;100025.88;4395555;32;20150;-85
2023/05/18 08:24:44;;;;;;;0.22;0.10;;;;;;;16.03;60.05;100034.75;4395406;32;20106;-86
2023/05/18 08:27:10;;;;;;;2.17;0.30;;;;;;;15.96;60.05;100030.75;4395373;32;20157;-86
2023/05/18 08:29:35;;;;;;;0.68;0.40;;;;;;;15.90;60.04;100023.19;4395304;32;20090;-85
2023/05/18 08:32:01;;;;;;;0.75;0.40;;;;;;;15.94;60.05;100030.81;4395331;32;20370;-86
2023/05/18 08:34:26;;;;;;;0.93;0.40;;;;;;;15.95;60.05;100027.28;4407754;32;20455;-85
2023/05/18 08:36:52;;;;;;;0.20;0.20;;;;;;;16.15;60.06;100030.69;4407168;32;33557;-86
2023/05/18 08:39:17;;;;;;;0.20;0.20;;;;;;;16.10;60.06;100024.81;4382726;32;20101;-86
2023/05/18 08:41:55;;;;;;;1.12;0.30;;;;;;;16.12;60.06;100036.09;4394930;32;20165;-86
2023/05/18 08:44:21;;;;;;;3.90;0.35;;;;;;;16.02;60.06;100026.94;4396076;32;20130;-86
2023/05/18 08:46:49;;;;;;;0.88;0.20;;;;;;;16.24;60.06;100032.81;4382694;32;20098;-86
2023/05/18 08:49:17;;;;;;;0.30;0.20;;;;;;;16.22;60.06;100032.06;4382998;32;20090;-86
2023/05/18 08:51:44;;;;;;;2.03;0.30;;;;;;;16.47;60.08;100029.03;4382655;32;20604;-86
2023/05/18 08:54:10;;;;;;;0.65;0.30;;;;;;;16.63;60.09;100027.31;4382730;32;20133;-86
2023/05/18 08:56:35;;;;;;;0.32;0.20;;;;;;;16.82;60.09;100033.34;4382120;32;20150;-86
2023/05/18 08:59:03;;;;;;;3.33;0.32;;;;;;;16.78;60.10;100029.12;4407523;32;20149;-86
2023/05/18 09:01:30;;;;;;;0.40;0.20;;;;;;;16.60;60.09;100034.50;4382571;32;20485;-86
2023/05/18 09:03:56;;;;;;;0.82;0.22;;;;;;;16.71;60.09;100025.16;4382662;32;20503;-86
2023/05/18 09:06:23;;;;;;;2.33;0.30;;;;;;;16.97;60.10;100025.53;4395337;32;20493;-86
2023/05/18 09:08:49;;;;;;;0.77;0.55;;;;;;;16.90;60.10;100032.91;4395430;32;20086;-86
2023/05/18 09:11:14;;;;;;;0.43;0.30;;;;;;;17.02;60.11;100026.13;4395080;32;20442;-87
2023/05/18 09:13:39;;;;;;;0.40;0.20;;;;;;;17.07;60.10;100029.38;4407472;32;20503;-87
2023/05/18 09:16:06;;;;;;;0.93;0.28;;;;;;;16.96;60.10;100021.22;4395175;32;20145;-86
2023/05/18 09:18:32;;;;;;;0.82;0.30;;;;;;;16.85;60.11;100027.91;4407793;32;20116;-86
2023/05/18 09:20:57;;;;;;;4.60;0.52;;;;;;;17.11;60.11;100026.50;4407311;32;20097;-86
2023/05/18 09:23:23;;;;;;;0.52;0.30;;;;;;;17.10;60.11;100026.59;4407734;32;20166;-86
2023/05/18 09:25:48;;;;;;;0.30;0.20;;;;;;;17.03;60.11;100035.72;4394944;32;20146;-86
2023/05/18 09:28:25;;;;;;;0.10;0.10;;;;;;;17.10;60.11;100031.84;4394960;32;20110;-86
2023/05/18 09:30:52;;;;;;;0.40;0.28;;;;;;;17.06;60.11;100031.16;4395113;32;20098;-87
2023/05/18 09:33:20;;;;;;;0.62;0.30;;;;;;;17.19;60.11;100034.81;4395051;32;20164;-86
2023/05/18 09:35:46;;;;;;;0.10;0.10;;;;;;;17.34;60.13;100034.91;4395352;32;20180;-87
2023/05/18 09:38:14;;;;;;;0.47;0.30;;;;;;;17.26;60.12;100035.31;4382375;32;20094;-86
2023/05/18 09:40:43;;;;;;;0.57;0.40;;;;;;;17.29;60.12;100043.06;4382229;32;20524;-87
2023/05/18 09:43:08;;;;;;;1.08;0.50;;;;;;;16.96;60.10;100040.47;4394843;32;20453;-87
2023/05/18 09:45:34;;;;;;;0.37;0.30;;;;;;;17.16;60.12;100042.88;4393901;32;35174;-86
2023/05/18 09:47:59;;;;;;;5.40;0.37;;;;;;;17.34;60.13;100040.19;4381832;32;20141;-86
2023/05/18 09:50:25;;;;;;;0.40;0.20;;;;;;;17.19;60.11;100045.34;4382056;32;20125;-87
2023/05/18 09:52:50;;;;;;;0.20;0.20;;;;;;;17.37;60.12;100040.84;4407444;32;20124;-86
2023/05/18 09:55:16;;;;;;;0.70;0.40;;;;;;;17.22;60.12;100046.94;4393929;32;20138;-86
2023/05/18 09:57:45;;;;;;;0.77;0.50;;;;;;;17.13;60.11;100042.19;4381986;32;20090;-86
2023/05/18 10:00:11;;;;;;;0.85;0.62;;;;;;;17.28;60.12;100045.78;4395102;32;20558;-86
2023/05/18 10:02:38;;;;;;;1.60;0.40;;;;;;;17.57;60.14;100042.38;4407350;32;20098;-87
2023/05/18 10:05:04;;;;;;;0.65;0.40;;;;;;;17.77;60.14;100047.41;4407171;32;20114;-86
2023/05/18 10:07:30;;;;;;;1.23;0.60;;;;;;;17.43;60.12;100043.13;4394598;32;20133;-86
2023/05/18 10:10:02;;;;;;;1.08;0.40;;;;;;;17.66;60.14;100035.72;4382137;32;20132;-87
2023/05/18 10:12:28;;;;;;;2.33;0.30;;;;;;;17.58;60.13;100037.97;4394513;32;20102;-87
2023/05/18 10:14:53;;;;;;;3.47;0.65;;;;;;;17.73;60.14;100039.75;4406456;32;30076;-87
2023/05/18 10:17:18;;;;;;;1.08;0.60;;;;;;;17.73;60.15;100042.38;4393575;32;35610;-86
2023/05/18 10:19:44;;;;;;;0.30;0.20;;;;;;;18.07;60.17;100036.87;4393477;32;37077;-87
2023/05/18 10:22:09;;;;;;;2.47;0.50;;;;;;;18.16;60.17;100043.38;4406175;32;31182;-87
2023/05/18 10:24:38;;;;;;;0.37;0.37;;;;;;;18.40;60.18;100036.66;4406880;32;20164;-87
2023/05/18 10:27:08;;;;;;;1.67;0.60;;;;;;;18.56;60.19;100043.66;4394548;32;20102;-87
2023/05/18 10:29:36;;;;;;;1.45;0.60;;;;;;;18.69;60.19;100034.09;4394485;32;20117;-88
2023/05/18 10:32:02;;;;;;;0.90;0.50;;;;;;;18.80;60.20;100038.72;4406919;32;20098;-87
2023/05/18 10:34:29;;;;;;;0.75;0.40;;;;;;;18.81;60.20;100040.41;4381688;32;20094;-87
2023/05/18 10:36:55;;;;;;;1.05;0.40;;;;;;;18.72;60.20;100038.34;4394258;32;20117;-87
2023/05/18 10:39:21;;;;;;;0.98;0.20;;;;;;;18.52;60.18;100044.78;4394160;32;20455;-87
2023/05/18 10:41:47;;;;;;;1.85;0.40;;;;;;;18.55;60.19;100039.34;4381450;32;20137;-88
2023/05/18 10:44:12;;;;;;;2.33;0.37;;;;;;;18.46;60.18;100039.91;4394032;32;20172;-89
2023/05/18 10:46:37;;;;;;;0.65;0.50;;;;;;;18.33;60.17;100048.53;4393131;32;34502;-88
2023/05/18 10:49:04;;;;;;;1.60;0.32;;;;;;;18.21;60.16;100043.97;4406607;32;20149;-88
2023/05/18 10:51:30;;;;;;;0.90;0.40;;;;;;;18.19;60.17;100045.84;4406592;32;20411;-88
2023/05/18 10:54:00;;;;;;;0.82;0.30;;;;;;;18.08;60.17;100046.47;4394251;32;20128;-88
2023/05/18 10:56:26;;;;;;;;;;;;;;;17.91;60.15;100040.47;4394776;32;20098;-89
2023/05/18 10:58:51;;;;;;;0.85;0.30;;;;;;;17.79;60.15;100042.03;4419299;32;20314;-89
2023/05/18 11:01:16;;;;;;;1.30;0.30;;;;;;;17.71;60.14;100033.72;4393576;32;20167;-88
2023/05/18 11:03:42;;;;;;;1.20;0.30;;;;;;;17.73;60.15;100045.00;4393346;32;20593;-88
2023/05/18 11:06:09;;;;;;;1.10;0.47;;;;;;;17.65;60.14;100034.88;4406878;32;20144;-88
2023/05/18 11:08:48;;;;;;;1.08;0.52;;;;;;;17.77;60.14;100046.56;4396214;32;20116;-87
2023/05/18 11:11:14;;;;;;;0.45;0.35;;;;;;;17.66;60.14;100044.47;4396583;32;20133;-88
2023/05/18 11:13:44;;;;;;;1.60;0.40;;;;;;;17.74;60.15;100049.34;4408396;32;20125;-88
2023/05/18 11:16:10;;;;;;;2.10;0.35;;;;;;;17.78;60.16;100051.72;4396037;32;20163;-87
2023/05/18 11:18:45;;;;;;;0.40;0.20;;;;;;;17.67;60.14;100046.22;4382693;32;22117;-88
2023/05/18 11:21:20;;;;;;;0.57;0.32;;;;;;;17.63;60.14;100049.06;4408240;32;20141;-88
2023/05/18 11:24:20;;;;;;;0.75;0.20;;;;;;;17.55;60.15;100051.28;4395755;32;20127;-87
2023/05/18 11:26:47;;;;;;;0.95;0.57;;;;;;;17.59;60.14;100058.94;4409330;32;20132;-89
2023/05/18 11:29:35;;;;;;;0.30;0.20;;;;;;;17.64;60.14;100058.66;4395475;32;20466;-87